Time;durP1;ratioP1;P1;durP2;ratioP2;P2;SDS_P1;SDS_P2;PMS_P1;PMS_P2;Temp;Humidity;BMP_temperature;BMP_pressure;BME280_temperature;BME280_humidity;BME280_pressure;Samples;Min_cycle;Max_cycle;Signal;HPM_P1;HPM_P2
2023/01/09 00:08:32;;;;;;;26.30;11.80;;;;;;;-6.81;100.00;100466.23;104389;1304;544835;-72
2023/01/09 00:10:59;;;;;;;27.10;12.00;;;;;;;-6.67;100.00;100472.30;107235;1280;22517;-72
2023/01/09 00:13:26;;;;;;;25.70;11.70;;;;;;;-6.49;100.00;100476.33;107225;1276;22576;-72
2023/01/09 00:15:53;;;;;;;25.10;10.80;;;;;;;-6.35;100.00;100472.30;107257;1280;22526;-72
2023/01/09 00:18:20;;;;;;;22.50;10.80;;;;;;;-6.22;100.00;100476.89;107219;1280;22586;-71
2023/01/09 00:20:47;;;;;;;25.20;9.90;;;;;;;-6.12;100.00;100470.96;107087;1273;25565;-71
2023/01/09 00:23:14;;;;;;;24.10;10.30;;;;;;;-6.03;100.00;100471.85;107223;1278;169382;-72
2023/01/09 00:25:41;;;;;;;18.90;9.40;;;;;;;-5.94;100.00;100474.75;107295;1276;22537;-73
2023/01/09 00:28:08;;;;;;;21.00;9.60;;;;;;;-5.88;100.00;100471.81;108990;1278;22249;-73
2023/01/09 00:30:35;;;;;;;19.80;10.10;;;;;;;-5.82;100.00;100469.90;110145;1278;22305;-73
2023/01/09 00:33:03;;;;;;;26.20;12.70;;;;;;;-5.75;100.00;100465.06;110126;1278;22433;-72
2023/01/09 00:35:30;;;;;;;23.40;11.90;;;;;;;-5.70;100.00;100465.61;110123;1278;22283;-72
2023/01/09 00:37:56;;;;;;;24.00;10.30;;;;;;;-5.67;100.00;100463.13;109977;1278;22725;-72
2023/01/09 00:40:23;;;;;;;22.30;11.40;;;;;;;-5.62;100.00;100458.38;110104;1278;23973;-73
2023/01/09 00:42:53;;;;;;;21.80;11.20;;;;;;;-5.64;100.00;100452.02;110107;1272;22189;-73
2023/01/09 00:45:27;;;;;;;21.90;10.20;;;;;;;-5.69;100.00;100450.58;110057;1277;22351;-73
2023/01/09 00:48:02;;;;;;;23.50;10.90;;;;;;;-5.75;100.00;100445.70;110077;1278;22319;-73
2023/01/09 00:50:30;;;;;;;23.50;11.50;;;;;;;-5.79;100.00;100441.89;110035;1278;22704;-73
2023/01/09 00:53:00;;;;;;;25.10;11.20;;;;;;;-5.83;100.00;100438.09;110124;1278;22201;-73
2023/01/09 00:55:27;;;;;;;22.40;10.10;;;;;;;-5.84;100.00;100431.96;110082;1278;22204;-73
2023/01/09 00:57:55;;;;;;;18.50;9.90;;;;;;;-5.76;100.00;100434.16;110058;1277;22519;-72
2023/01/09 01:00:22;;;;;;;20.40;10.20;;;;;;;-5.69;100.00;100431.13;109589;1273;22568;-72
2023/01/09 01:02:49;;;;;;;23.40;10.40;;;;;;;-5.70;100.00;100424.34;107544;1273;24070;-72
2023/01/09 01:08:02;;;;;;;19.70;9.70;;;;;;;-5.79;100.00;100413.80;107293;1278;24228;-72
2023/01/09 01:10:29;;;;;;;24.20;12.00;;;;;;;-5.84;100.00;100408.59;107359;1278;22682;-72
2023/01/09 01:12:56;;;;;;;22.50;11.00;;;;;;;-5.84;100.00;100405.04;107484;1275;24208;-72
2023/01/09 01:15:24;;;;;;;19.90;10.00;;;;;;;-5.79;100.00;100407.55;107526;1279;22679;-72
2023/01/09 01:17:51;;;;;;;22.50;10.20;;;;;;;-5.79;100.00;100402.61;107320;1278;24271;-73
2023/01/09 01:20:18;;;;;;;21.80;9.90;;;;;;;-5.85;100.00;100394.27;107495;1275;25486;-72
2023/01/09 01:22:46;;;;;;;25.10;11.20;;;;;;;-5.90;100.00;100388.73;107533;1270;24244;-72
2023/01/09 01:25:15;;;;;;;17.90;9.70;;;;;;;-5.94;100.00;100381.04;107511;1276;22576;-72
2023/01/09 01:27:43;;;;;;;21.50;10.10;;;;;;;-5.99;100.00;100388.58;107314;1272;22535;-72
2023/01/09 01:30:12;;;;;;;21.50;9.90;;;;;;;-5.96;100.00;100381.02;107468;1278;22534;-72
2023/01/09 01:32:39;;;;;;;22.10;10.10;;;;;;;-5.92;100.00;100375.39;110066;1278;22333;-72
2023/01/09 01:35:07;;;;;;;19.10;9.70;;;;;;;-5.95;100.00;100370.20;110043;1274;22416;-72
2023/01/09 04:08:33;;;;;;;13.10;6.10;;;;;;;-6.32;100.00;100268.89;110247;1270;22425;-72
2023/01/09 04:11:00;;;;;;;11.00;6.00;;;;;;;-6.34;100.00;100263.40;110143;1276;22395;-73
2023/01/09 04:13:27;;;;;;;13.20;7.10;;;;;;;-6.35;100.00;100259.63;110056;1277;22227;-73
2023/01/09 04:15:55;;;;;;;14.00;6.40;;;;;;;-6.33;100.00;100258.02;110142;1278;22335;-73
2023/01/09 04:18:22;;;;;;;11.10;6.30;;;;;;;-6.28;100.00;100254.69;110074;1277;22481;-72
2023/01/09 04:20:49;;;;;;;13.90;6.60;;;;;;;-6.23;100.00;100245.89;110088;1278;22197;-73
2023/01/09 04:23:16;;;;;;;14.90;6.40;;;;;;;-6.27;100.00;100239.92;110160;1277;22270;-73
2023/01/09 04:25:43;;;;;;;14.10;6.20;;;;;;;-6.29;100.00;100240.15;110141;1277;22231;-73
2023/01/09 04:28:10;;;;;;;13.80;6.30;;;;;;;-6.26;100.00;100238.98;110056;1277;22396;-73
2023/01/09 04:30:37;;;;;;;12.70;6.00;;;;;;;-6.20;100.00;100242.94;110111;1277;22456;-73
2023/01/09 04:33:04;;;;;;;12.30;6.10;;;;;;;-6.23;100.00;100244.48;110146;1276;22188;-73
2023/01/09 04:35:31;;;;;;;15.90;7.10;;;;;;;-6.27;100.00;100244.17;110110;1278;22196;-73
2023/01/09 04:37:59;;;;;;;13.20;7.00;;;;;;;-6.24;100.00;100244.92;107745;1277;24192;-72
2023/01/09 04:40:26;;;;;;;14.00;6.40;;;;;;;-6.19;100.00;100241.13;107372;1278;22546;-72
2023/01/09 04:42:53;;;;;;;13.60;6.30;;;;;;;-6.18;100.00;100241.31;107345;1277;22583;-72
2023/01/09 04:45:20;;;;;;;11.90;6.20;;;;;;;-6.22;100.00;100247.92;107329;1278;23526;-72
2023/01/09 04:47:47;;;;;;;12.70;6.70;;;;;;;-6.26;100.00;100247.48;107141;1277;22638;-72
2023/01/09 04:50:15;;;;;;;11.70;6.20;;;;;;;-6.23;100.00;100248.68;107305;1277;22932;-72
2023/01/09 04:52:42;;;;;;;12.70;6.90;;;;;;;-6.17;100.00;100247.40;107585;1277;25252;-73
2023/01/09 04:55:09;;;;;;;15.50;7.10;;;;;;;-6.17;100.00;100245.79;107398;1274;23630;-72
2023/01/09 04:57:36;;;;;;;16.70;6.70;;;;;;;-6.20;100.00;100246.13;107354;1278;22557;-71
2023/01/09 05:00:04;;;;;;;12.90;7.10;;;;;;;-6.23;100.00;100239.69;107465;1276;22630;-72
2023/01/09 05:02:31;;;;;;;14.80;7.40;;;;;;;-6.21;100.00;100233.15;107566;1277;23822;-72
2023/01/09 05:05:00;;;;;;;13.40;6.90;;;;;;;-6.17;100.00;100235.45;107563;1277;25453;-72
2023/01/09 05:07:27;;;;;;;15.10;7.60;;;;;;;-6.22;100.00;100234.27;107377;1270;22594;-73
2023/01/09 05:09:54;;;;;;;14.00;7.50;;;;;;;-6.24;100.00;100233.44;107549;1276;25501;-72
2023/01/09 05:12:21;;;;;;;15.00;7.20;;;;;;;-6.20;100.00;100227.23;107468;1277;22531;-72
2023/01/09 05:14:48;;;;;;;12.80;6.50;;;;;;;-6.13;100.00;100227.59;110044;1277;22286;-72
2023/01/09 05:17:15;;;;;;;14.30;7.10;;;;;;;-6.12;100.00;100226.91;110121;1277;22315;-72
2023/01/09 05:19:44;;;;;;;17.10;9.40;;;;;;;-6.13;100.00;100230.18;110109;1277;22202;-72
2023/01/09 05:22:11;;;;;;;13.70;6.50;;;;;;;-6.12;100.00;100225.33;110153;1277;22262;-72
2023/01/09 05:24:38;;;;;;;13.90;7.30;;;;;;;-6.06;100.00;100227.20;110150;1277;22710;-72
2023/01/09 05:27:05;;;;;;;13.50;6.90;;;;;;;-5.98;100.00;100232.95;110105;1273;22213;-71
2023/01/09 05:29:32;;;;;;;16.70;7.80;;;;;;;-5.98;100.00;100233.70;110073;1277;22404;-71
2023/01/09 05:31:59;;;;;;;14.40;7.50;;;;;;;-6.00;100.00;100232.13;110133;1273;22989;-72
2023/01/09 05:34:27;;;;;;;14.80;7.80;;;;;;;-5.97;100.00;100225.06;110081;1278;22197;-72
2023/01/09 05:36:54;;;;;;;14.30;7.50;;;;;;;-5.93;100.00;100221.81;109977;1276;22728;-73
2023/01/09 05:39:21;;;;;;;15.40;7.50;;;;;;;-5.90;100.00;100222.21;109993;1278;22223;-72
2023/01/09 05:41:48;;;;;;;13.80;7.30;;;;;;;-5.90;100.00;100217.69;110163;1277;22906;-72
2023/01/09 05:44:16;;;;;;;14.90;7.80;;;;;;;-5.91;100.00;100213.52;110092;1277;22268;-73
2023/01/09 05:46:43;;;;;;;16.30;7.70;;;;;;;-5.87;100.00;100212.52;110113;1277;22205;-72
2023/01/09 05:49:10;;;;;;;14.20;7.40;;;;;;;-5.81;100.00;100215.50;110122;1278;22676;-72
2023/01/09 05:51:37;;;;;;;14.60;7.40;;;;;;;-5.81;100.00;100222.50;110111;1277;22185;-72
2023/01/09 05:54:06;;;;;;;15.50;8.00;;;;;;;-5.83;100.00;100218.01;110086;1278;22265;-71
2023/01/09 05:56:33;;;;;;;15.60;7.60;;;;;;;-5.86;100.00;100217.41;110020;1278;23019;-72
2023/01/09 05:59:00;;;;;;;13.40;8.10;;;;;;;-5.82;100.00;100212.25;110000;1277;22271;-71
2023/01/09 06:01:27;;;;;;;16.30;7.90;;;;;;;-5.76;100.00;100212.80;110045;1277;22484;-72
2023/01/09 06:03:54;;;;;;;11.90;6.70;;;;;;;-5.71;100.00;100215.98;110065;1277;22695;-73
2023/01/09 06:06:23;;;;;;;13.30;7.40;;;;;;;-5.71;100.00;100205.80;110082;1277;22892;-76
2023/01/09 06:08:50;;;;;;;13.40;7.90;;;;;;;-5.74;100.00;100201.79;109378;1278;22567;-71
2023/01/09 06:11:17;;;;;;;12.70;7.40;;;;;;;-5.69;100.00;100200.41;107392;1276;25468;-74
2023/01/09 06:13:44;;;;;;;14.40;7.20;;;;;;;-5.66;100.00;100197.83;107395;1273;23004;-74
2023/01/09 06:16:12;;;;;;;14.20;7.20;;;;;;;-5.67;100.00;100193.73;107426;1277;23256;-71
2023/01/09 06:18:39;;;;;;;14.30;7.20;;;;;;;-5.71;100.00;100196.58;107417;1277;22598;-73
2023/01/09 06:21:07;;;;;;;12.70;7.70;;;;;;;-5.76;100.00;100191.14;107396;1277;23982;-72
2023/01/09 06:23:33;;;;;;;13.80;7.00;;;;;;;-5.76;100.00;100191.23;107464;1277;22911;-72
2023/01/09 06:26:01;;;;;;;13.00;6.90;;;;;;;-5.70;100.00;100191.31;107338;1276;24082;-72
2023/01/09 06:28:28;;;;;;;13.20;7.00;;;;;;;-5.69;100.00;100190.33;107115;1277;23368;-72
2023/01/09 06:30:55;;;;;;;13.00;7.00;;;;;;;-5.73;100.00;100198.02;107079;1277;22559;-72
2023/01/09 06:33:22;;;;;;;14.30;7.30;;;;;;;-5.77;100.00;100199.85;107364;1277;25196;-72
2023/01/09 06:35:49;;;;;;;14.70;7.30;;;;;;;-5.73;100.00;100197.96;107507;1277;22572;-72
2023/01/09 06:38:16;;;;;;;13.80;7.20;;;;;;;-5.66;100.00;100202.95;107357;1277;23496;-73
2023/01/09 06:40:43;;;;;;;13.90;7.70;;;;;;;-5.61;100.00;100199.30;107289;1277;22594;-72
2023/01/09 06:43:11;;;;;;;15.60;7.60;;;;;;;-5.61;100.00;100200.69;107320;1277;22563;-73
2023/01/09 06:45:38;;;;;;;14.70;7.60;;;;;;;-5.65;100.00;100201.23;107334;1277;22731;-73
2023/01/09 06:48:05;;;;;;;14.10;6.90;;;;;;;-5.60;100.00;100201.98;107465;1277;23034;-72
2023/01/09 06:50:32;;;;;;;13.60;6.70;;;;;;;-5.56;100.00;100203.11;107440;1277;22783;-73
2023/01/09 06:52:59;;;;;;;14.10;7.10;;;;;;;-5.57;100.00;100196.87;107404;1277;22563;-73
2023/01/09 06:55:26;;;;;;;15.40;6.80;;;;;;;-5.60;100.00;100195.36;107388;1277;22530;-73
2023/01/09 06:57:53;;;;;;;15.90;7.40;;;;;;;-5.57;100.00;100197.06;107289;1277;22920;-73
2023/01/09 07:00:20;;;;;;;14.70;7.40;;;;;;;-5.51;100.00;100199.64;107287;1277;24234;-73
2023/01/09 07:02:47;;;;;;;13.60;7.70;;;;;;;-5.49;100.00;100202.05;107466;1277;22650;-73
2023/01/09 07:05:15;;;;;;;15.90;7.80;;;;;;;-5.51;100.00;100201.02;107449;1277;22668;-72
2023/01/09 07:07:42;;;;;;;12.60;7.20;;;;;;;-5.51;100.00;100199.45;107167;1278;22599;-73
2023/01/09 07:10:09;;;;;;;12.40;7.40;;;;;;;-5.45;100.00;100196.16;107529;1277;22555;-73
2023/01/09 07:12:36;;;;;;;18.00;8.30;;;;;;;-5.39;100.00;100195.06;107439;1278;22578;-71
2023/01/09 07:15:04;;;;;;;16.30;7.70;;;;;;;-5.37;100.00;100202.96;107442;1276;22548;-72
2023/01/09 07:17:31;;;;;;;15.50;7.60;;;;;;;-5.40;100.00;100205.71;107364;1278;24370;-71
2023/01/09 07:19:59;;;;;;;16.40;7.80;;;;;;;-5.41;100.00;100200.86;107369;1278;25673;-72
2023/01/09 07:22:26;;;;;;;17.20;7.60;;;;;;;-5.36;100.00;100198.06;107386;1277;22568;-72
2023/01/09 07:24:53;;;;;;;16.80;7.80;;;;;;;-5.31;100.00;100201.97;107827;1277;23005;-72
2023/01/09 07:27:21;;;;;;;15.40;7.80;;;;;;;-5.29;100.00;100199.63;110001;1277;22221;-72
2023/01/09 07:29:50;;;;;;;16.60;8.30;;;;;;;-5.31;100.00;100197.88;110077;1278;22197;-72
2023/01/09 07:32:17;;;;;;;16.20;7.90;;;;;;;-5.31;100.00;100204.48;108711;1278;22568;-72
2023/01/09 07:34:44;;;;;;;14.00;7.50;;;;;;;-5.26;100.00;100210.82;107459;1278;25265;-71
2023/01/09 07:37:11;;;;;;;15.50;8.30;;;;;;;-5.20;100.00;100214.60;107386;1278;22651;-71
2023/01/09 07:39:38;;;;;;;20.30;8.10;;;;;;;-5.15;100.00;100208.91;107388;1277;25040;-72
2023/01/09 12:18:22;;;;;;;23.90;14.20;;;;;;;-3.86;100.00;99982.96;104456;1304;545103;-67
2023/01/09 12:21:06;;;;;;;20.90;11.90;;;;;;;-3.71;100.00;99984.73;109404;1289;23021;-67
2023/01/09 12:24:06;;;;;;;16.60;10.00;;;;;;;-3.52;100.00;99975.77;109327;1289;23127;-67
2023/01/09 12:26:49;;;;;;;14.40;8.60;;;;;;;-3.35;100.00;99983.15;109405;1289;22490;-67
2023/01/09 12:29:29;;;;;;;12.70;7.10;;;;;;;-3.24;100.00;99974.68;109455;1289;22401;-68
2023/01/09 12:32:03;;;;;;;10.00;5.80;;;;;;;-3.13;100.00;99976.63;108433;1287;242817;-67
2023/01/09 12:34:47;;;;;;;10.30;6.10;;;;;;;-3.06;100.00;99974.27;106982;1287;22539;-67
2023/01/09 12:37:33;;;;;;;10.30;6.00;;;;;;;-2.99;100.00;99982.27;107243;1287;23830;-67
2023/01/09 12:40:15;;;;;;;11.00;6.20;;;;;;;-3.01;100.00;99978.11;106774;1287;22592;-67
2023/01/09 12:43:09;;;;;;;9.70;5.70;;;;;;;-2.97;100.00;99982.16;106672;1287;25329;-67
2023/01/09 12:46:02;;;;;;;11.30;6.00;;;;;;;-2.92;100.00;99985.45;106189;1278;22532;-67
2023/01/09 12:48:51;;;;;;;11.10;6.00;;;;;;;-2.87;100.00;99977.74;106485;1287;22656;-67
2023/01/09 12:51:21;;;;;;;9.30;6.00;;;;;;;-2.84;100.00;99976.19;106629;1287;22556;-67
2023/01/09 12:53:56;;;;;;;11.50;6.10;;;;;;;-2.85;100.00;99985.42;106580;1287;24262;-66
2023/01/09 12:56:37;;;;;;;14.00;6.40;;;;;;;-2.82;100.00;99989.99;109591;1287;22431;-67
2023/01/09 12:59:14;;;;;;;9.40;5.70;;;;;;;-2.75;100.00;99989.54;109605;1287;22638;-68
2023/01/09 13:01:44;;;;;;;10.40;5.80;;;;;;;-2.69;100.00;99997.87;109592;1287;22283;-67
2023/01/09 13:04:16;;;;;;;10.00;6.20;;;;;;;-2.71;100.00;99991.86;109420;1287;22476;-67
2023/01/09 13:06:46;;;;;;;9.70;5.70;;;;;;;-2.66;100.00;99991.67;110396;1275;22654;-68
2023/01/09 13:09:23;;;;;;;11.00;6.20;;;;;;;-2.61;100.00;99991.36;110118;1275;22178;-68
2023/01/09 13:12:01;;;;;;;10.80;5.70;;;;;;;-2.57;100.00;99992.10;110436;1275;22236;-68
2023/01/09 13:14:46;;;;;;;10.80;6.50;;;;;;;-2.60;100.00;99995.69;110132;1275;22335;-68
2023/01/09 13:17:17;;;;;;;11.90;6.50;;;;;;;-2.61;100.00;99997.90;110224;1276;22266;-67
2023/01/09 13:19:45;;;;;;;10.80;6.30;;;;;;;-2.56;100.00;99996.33;107390;1276;25325;-67
2023/01/09 13:22:12;;;;;;;9.80;5.80;;;;;;;-2.53;100.00;100002.36;107284;1276;22530;-68
2023/01/09 13:24:59;;;;;;;8.50;5.50;;;;;;;-2.50;100.00;100004.67;107086;1277;22547;-66
2023/01/09 13:27:26;;;;;;;11.80;6.10;;;;;;;-2.55;100.00;100005.70;107191;1277;25233;-67
2023/01/09 13:30:01;;;;;;;10.70;6.30;;;;;;;-2.59;100.00;100010.55;107204;1277;25210;-67
2023/01/09 13:33:05;;;;;;;9.50;5.90;;;;;;;-2.56;100.00;100011.08;107535;1277;25338;-66
2023/01/09 13:35:32;;;;;;;9.80;5.60;;;;;;;-2.51;100.00;100012.96;107037;1270;26544;-67
2023/01/09 13:38:00;;;;;;;8.30;5.40;;;;;;;-2.49;100.00;100012.09;106896;1277;24241;-67
2023/01/09 13:40:28;;;;;;;11.30;6.30;;;;;;;-2.50;100.00;100008.56;107272;1277;25325;-67
2023/01/09 13:42:56;;;;;;;12.50;6.60;;;;;;;-2.53;100.00;100011.95;107949;1276;25315;-67
2023/01/09 13:45:25;;;;;;;13.10;6.40;;;;;;;-2.49;100.00;100016.69;107431;1276;25477;-67
2023/01/09 13:48:10;;;;;;;11.40;6.60;;;;;;;-2.46;100.00;100013.99;107679;1276;23316;-66
2023/01/09 13:50:38;;;;;;;10.80;6.00;;;;;;;-2.44;100.00;100013.54;107312;1276;22536;-67
2023/01/09 13:53:24;;;;;;;11.50;5.70;;;;;;;-2.47;100.00;100011.22;107158;1278;24336;-66
2023/01/09 13:55:57;;;;;;;13.40;7.10;;;;;;;-2.46;100.00;100017.48;107144;1278;22587;-66
2023/01/09 13:58:38;;;;;;;9.00;5.80;;;;;;;-2.42;100.00;100020.77;107252;1278;22547;-66
2023/01/09 14:01:26;;;;;;;9.50;5.40;;;;;;;-2.36;100.00;100022.06;107222;1278;22523;-67
2023/01/09 14:04:10;;;;;;;11.70;6.20;;;;;;;-2.36;100.00;100020.21;107173;1277;22530;-66
2023/01/09 14:06:39;;;;;;;10.80;5.90;;;;;;;-2.41;100.00;100021.90;107264;1277;22553;-66
2023/01/09 14:09:10;;;;;;;8.30;5.20;;;;;;;-2.39;100.00;100022.52;107356;1277;22549;-66
2023/01/09 14:11:37;;;;;;;10.80;5.80;;;;;;;-2.34;100.00;100019.23;107315;1276;23911;-66
2023/01/09 14:14:06;;;;;;;12.50;7.20;;;;;;;-2.31;100.00;100019.93;107376;1276;23237;-66
2023/01/09 14:16:33;;;;;;;9.20;5.40;;;;;;;-2.32;100.00;100014.55;107185;1276;25348;-65
2023/01/09 14:19:03;;;;;;;11.30;6.30;;;;;;;-2.33;100.00;100013.78;107241;1276;22535;-66
2023/01/09 14:21:50;;;;;;;11.60;5.90;;;;;;;-2.29;100.00;100003.55;107351;1276;24333;-66
2023/01/09 14:24:29;;;;;;;11.60;6.40;;;;;;;-2.24;100.00;100016.09;107351;1276;23872;-66
2023/01/09 14:26:58;;;;;;;14.70;7.30;;;;;;;-2.22;100.00;100023.51;107239;1276;22562;-66
2023/01/09 14:29:28;;;;;;;18.00;8.30;;;;;;;-2.25;100.00;100034.14;107185;1276;24229;-66
2023/01/09 14:32:25;;;;;;;12.60;7.10;;;;;;;-2.24;100.00;100026.05;107427;1277;23004;-66
2023/01/09 14:34:57;;;;;;;12.00;6.20;;;;;;;-2.18;100.00;100024.48;107266;1277;22647;-66
2023/01/09 14:37:24;;;;;;;12.70;6.00;;;;;;;-2.15;100.00;100025.09;110121;1277;22259;-66
2023/01/09 14:39:51;;;;;;;13.00;6.20;;;;;;;-2.15;100.00;100026.98;109407;1276;22560;-66
2023/01/09 14:42:21;;;;;;;12.70;6.00;;;;;;;-2.18;100.00;100027.96;107263;1276;25231;-67
2023/01/09 14:44:52;;;;;;;10.90;6.00;;;;;;;-2.14;100.00;100030.82;107272;1276;25339;-66
2023/01/09 14:47:41;;;;;;;11.00;5.90;;;;;;;-2.09;100.00;100029.02;107261;1276;23588;-66
2023/01/09 14:50:17;;;;;;;10.30;5.70;;;;;;;-2.04;100.00;100028.98;107414;1276;24202;-67
2023/01/09 14:53:08;;;;;;;12.40;6.40;;;;;;;-2.00;100.00;100032.25;107367;1276;25438;-66
2023/01/09 14:55:53;;;;;;;11.20;6.40;;;;;;;-2.03;100.00;100038.04;107190;1276;22541;-66
2023/01/09 14:58:24;;;;;;;11.70;6.10;;;;;;;-2.08;100.00;100029.26;107197;1276;22651;-66
2023/01/09 15:01:00;;;;;;;12.40;6.00;;;;;;;-2.06;100.00;100032.04;107249;1277;22531;-66
2023/01/09 15:03:32;;;;;;;11.60;5.70;;;;;;;-2.00;100.00;100034.22;107309;1277;22554;-66
2023/01/09 15:05:59;;;;;;;11.30;6.70;;;;;;;-1.97;100.00;100029.03;107352;1277;23006;-66
2023/01/09 15:08:26;;;;;;;12.00;6.70;;;;;;;-2.01;100.00;100029.11;107318;1276;25359;-66
2023/01/09 15:10:54;;;;;;;12.50;6.40;;;;;;;-1.99;100.00;100035.13;107260;1276;22659;-66
2023/01/09 15:13:35;;;;;;;10.90;6.40;;;;;;;-1.93;100.00;100035.63;107330;1276;22692;-66
2023/01/09 15:16:06;;;;;;;15.60;8.30;;;;;;;-1.89;100.00;100041.39;107371;1276;24191;-66
2023/01/09 15:18:38;;;;;;;13.30;7.00;;;;;;;-1.91;100.00;100041.89;107518;1276;25285;-66
2023/01/09 15:21:05;;;;;;;11.50;6.20;;;;;;;-1.87;100.00;100039.32;107375;1276;25321;-66
2023/01/09 15:23:32;;;;;;;14.40;6.70;;;;;;;-1.82;100.00;100033.44;107198;1276;22861;-66
2023/01/09 15:26:22;;;;;;;13.00;7.50;;;;;;;-1.81;100.00;100035.59;107460;1276;25228;-67
2023/01/09 15:28:50;;;;;;;12.60;7.10;;;;;;;-1.86;100.00;100034.29;107405;1276;24422;-67
2023/01/09 15:31:18;;;;;;;12.90;7.20;;;;;;;-1.90;100.00;100032.30;107309;1276;25482;-67
2023/01/09 15:33:46;;;;;;;11.30;6.80;;;;;;;-1.88;100.00;100026.63;107297;1276;22526;-67
2023/01/09 15:36:18;;;;;;;14.20;6.60;;;;;;;-1.84;100.00;100024.05;107139;1273;22527;-66
2023/01/09 15:38:45;;;;;;;12.70;7.00;;;;;;;-1.80;100.00;100023.20;107067;1276;22547;-65
2023/01/09 19:21:45;;;;;;;15.80;5.70;;;;;;;-2.13;100.00;99960.34;104363;1305;544914;-71
2023/01/09 19:24:12;;;;;;;10.10;4.50;;;;;;;-2.00;100.00;99966.21;106471;1285;25588;-71
2023/01/09 19:26:39;;;;;;;10.20;4.40;;;;;;;-1.82;100.00;99970.99;106379;1285;24266;-71
2023/01/09 19:29:06;;;;;;;9.80;4.20;;;;;;;-1.67;100.00;99969.52;106527;1287;24276;-71
2023/01/09 19:31:33;;;;;;;9.30;3.80;;;;;;;-1.57;100.00;99964.11;106572;1276;22546;-71
2023/01/09 19:34:00;;;;;;;9.00;3.90;;;;;;;-1.51;100.00;99963.72;106465;1289;22561;-72
2023/01/09 19:36:27;;;;;;;8.40;3.40;;;;;;;-1.47;100.00;99968.58;106227;1285;220469;-71
2023/01/09 19:38:58;;;;;;;9.90;3.70;;;;;;;-1.40;100.00;99966.64;106388;1285;24385;-71
2023/01/09 19:41:25;;;;;;;12.90;3.70;;;;;;;-1.32;100.00;99972.14;106768;1286;24206;-72
2023/01/09 19:43:53;;;;;;;10.10;3.40;;;;;;;-1.29;100.00;99974.36;106564;1286;22559;-71
2023/01/09 19:46:22;;;;;;;8.50;3.10;;;;;;;-1.28;100.00;99963.27;106656;1287;22836;-71
2023/01/09 19:48:49;;;;;;;7.80;3.40;;;;;;;-1.27;100.00;99968.21;106542;1287;22592;-71
2023/01/09 19:51:18;;;;;;;10.40;3.10;;;;;;;-1.21;100.00;99973.86;106565;1274;24371;-71
2023/01/09 19:53:49;;;;;;;12.30;4.10;;;;;;;-1.15;100.00;99975.64;106603;1286;22598;-71
2023/01/09 19:56:19;;;;;;;9.70;4.10;;;;;;;-1.14;100.00;99973.89;108362;1287;24241;-72
2023/01/09 19:58:53;;;;;;;10.10;3.50;;;;;;;-1.15;100.00;99977.55;107253;1278;22544;-72
2023/01/09 20:01:23;;;;;;;6.70;2.90;;;;;;;-1.12;100.00;99975.46;107147;1278;24208;-71
2023/01/09 20:03:50;;;;;;;6.50;2.90;;;;;;;-1.06;100.00;99971.95;107247;1277;22638;-71
2023/01/09 20:06:22;;;;;;;6.70;2.80;;;;;;;-1.02;100.00;99969.33;107138;1277;26637;-72
2023/01/09 20:08:51;;;;;;;7.90;3.00;;;;;;;-1.01;100.00;99965.50;107260;1277;22561;-72
2023/01/09 20:11:20;;;;;;;8.10;4.00;;;;;;;-1.03;100.00;99967.02;107974;1278;22658;-73
2023/01/09 20:13:47;;;;;;;7.30;3.00;;;;;;;-0.97;100.00;99968.79;107249;1278;22564;-73
2023/01/09 20:16:16;;;;;;;7.50;3.40;;;;;;;-0.97;100.00;99962.00;107432;1277;25451;-73
2023/01/09 20:18:43;;;;;;;10.20;4.10;;;;;;;-1.00;100.00;99962.31;107059;1278;22609;-73
2023/01/09 20:21:10;;;;;;;7.40;2.90;;;;;;;-1.01;100.00;99958.22;107197;1278;23270;-74
2023/01/09 20:23:37;;;;;;;7.10;2.50;;;;;;;-0.96;100.00;99950.80;106950;1278;23860;-73
2023/01/09 20:26:04;;;;;;;6.60;2.50;;;;;;;-0.90;100.00;99956.44;107292;1277;22586;-73
2023/01/09 20:28:31;;;;;;;5.00;2.50;;;;;;;-0.88;100.00;99952.14;107252;1277;23097;-74
2023/01/09 20:30:58;;;;;;;7.00;2.80;;;;;;;-0.88;100.00;99946.39;107321;1276;24268;-73
2023/01/09 20:33:25;;;;;;;5.60;2.60;;;;;;;-0.82;100.00;99955.55;107243;1277;22553;-73
2023/01/09 20:35:52;;;;;;;6.00;2.50;;;;;;;-0.78;100.00;99959.87;107329;1278;22530;-73
2023/01/09 20:38:19;;;;;;;7.60;2.80;;;;;;;-0.80;100.00;99952.29;107322;1279;22965;-73
2023/01/09 20:40:46;;;;;;;6.10;2.70;;;;;;;-0.85;100.00;99954.41;107362;1276;24271;-73
2023/01/09 20:43:13;;;;;;;6.20;2.60;;;;;;;-0.91;100.00;99951.40;107420;1275;22551;-73
2023/01/09 20:45:41;;;;;;;6.10;2.70;;;;;;;-0.89;100.00;99951.89;107739;1275;22548;-73
2023/01/09 20:48:09;;;;;;;7.60;3.00;;;;;;;-0.88;100.00;99947.94;107156;1273;22527;-73
2023/01/09 20:50:37;;;;;;;6.60;2.60;;;;;;;-0.90;100.00;99950.39;107334;1275;24221;-73
2023/01/09 20:53:04;;;;;;;7.50;3.10;;;;;;;-0.93;100.00;99944.00;107331;1275;22978;-73
2023/01/09 20:55:33;;;;;;;8.50;2.80;;;;;;;-0.94;100.00;99946.95;107563;1275;23925;-73
2023/01/09 20:58:00;;;;;;;7.20;2.90;;;;;;;-0.88;100.00;99943.91;107460;1275;25380;-73
2023/01/09 21:00:30;;;;;;;7.50;3.10;;;;;;;-0.84;100.00;99946.21;107367;1275;22526;-73
2023/01/09 21:02:58;;;;;;;5.70;2.90;;;;;;;-0.86;100.00;99941.91;107300;1275;22542;-72
2023/01/09 21:05:25;;;;;;;6.30;2.40;;;;;;;-0.89;100.00;99950.52;107468;1275;25337;-73
2023/01/09 21:11:34;;;;;;;5.30;2.00;;;;;;;-0.93;100.00;99952.02;107456;1275;22910;-74
2023/01/09 21:14:01;;;;;;;;;;;;;;;-0.90;100.00;99953.02;107494;1275;22504;-73
2023/01/09 21:16:28;;;;;;;5.40;2.80;;;;;;;-0.93;100.00;99957.19;107492;1275;22534;-74
2023/01/09 21:18:55;;;;;;;6.30;2.80;;;;;;;-0.99;100.00;99956.31;107584;1274;22554;-73
2023/01/09 21:21:22;;;;;;;;;;;;;;;-0.97;100.00;99954.02;107462;1275;22988;-73
2023/01/09 21:23:51;;;;;;;7.20;2.70;;;;;;;-1.00;100.00;99954.36;107390;1275;22541;-73
2023/01/09 21:26:21;;;;;;;5.20;2.00;;;;;;;-1.03;100.00;99949.54;107406;1274;25382;-73
2023/01/09 21:28:53;;;;;;;5.70;1.90;;;;;;;-0.94;100.00;99945.05;107489;1274;22534;-74
2023/01/09 21:31:28;;;;;;;6.20;2.50;;;;;;;-0.90;100.00;99952.39;107277;1275;22526;-73
2023/01/09 21:33:55;;;;;;;7.00;2.50;;;;;;;-0.90;100.00;99945.98;107466;1274;22671;-73
2023/01/09 21:36:22;;;;;;;5.30;1.80;;;;;;;-0.90;100.00;99949.92;108797;1275;22299;-74
2023/01/09 21:38:52;;;;;;;5.50;2.30;;;;;;;-0.90;100.00;99944.63;110337;1275;22373;-74
2023/01/09 21:47:07;;;;;;;3.70;1.80;;;;;;;-0.78;100.00;99952.09;110097;1269;23007;-74
2023/01/09 21:49:38;;;;;;;5.10;1.60;;;;;;;-0.79;100.00;99945.92;110268;1275;22229;-73
